createdAt,value
2018-05-16T00:00:58.252Z,63.43
2018-05-16T00:03:26.371Z,62.46
2018-05-16T00:05:54.498Z,63.59
2018-05-16T00:08:22.625Z,62.75
2018-05-16T00:10:50.749Z,63.44
2018-05-16T00:13:18.881Z,63.28
2018-05-16T00:15:47.178Z,63.57
2018-05-16T00:18:15.300Z,63.55
2018-05-16T00:20:43.426Z,63.94
2018-05-16T00:23:11.583Z,63.62
2018-05-16T00:25:39.707Z,63.93
2018-05-16T00:28:07.811Z,64.67
2018-05-16T00:30:35.942Z,64.46
2018-05-16T00:33:04.087Z,64.27
2018-05-16T00:35:32.206Z,64.14
2018-05-16T00:38:00.341Z,64.09
2018-05-16T00:40:28.492Z,64.32
2018-05-16T00:42:56.605Z,64.43
2018-05-16T00:45:24.730Z,64.55
2018-05-16T00:47:52.862Z,64.70
2018-05-16T00:50:20.995Z,64.11
2018-05-16T00:52:49.137Z,64.43
2018-05-16T00:55:17.270Z,62.52
2018-05-16T00:57:45.447Z,63.14
2018-05-16T01:00:13.603Z,63.53
2018-05-16T01:02:41.730Z,63.15
2018-05-16T01:05:09.855Z,63.12
2018-05-16T01:07:37.978Z,62.72
2018-05-16T01:10:06.135Z,63.56
2018-05-16T01:12:34.265Z,63.45
2018-05-16T01:15:02.541Z,63.49
2018-05-16T01:17:30.654Z,63.63
2018-05-16T01:19:58.772Z,63.71
2018-05-16T01:22:26.898Z,63.17
2018-05-16T01:24:55.013Z,61.74
2018-05-16T01:27:23.134Z,62.59
2018-05-16T01:29:51.291Z,62.37
2018-05-16T01:32:19.410Z,61.64
2018-05-16T01:34:47.534Z,61.13
2018-05-16T01:37:15.661Z,59.45
2018-05-16T01:39:43.790Z,60.34
2018-05-16T01:42:11.909Z,59.32
2018-05-16T01:44:40.211Z,59.70
2018-05-16T01:47:10.066Z,59.81
2018-05-16T01:49:38.178Z,59.37
2018-05-16T01:52:06.500Z,59.60
2018-05-16T01:54:34.632Z,59.84
2018-05-16T01:57:02.741Z,60.14
2018-05-16T01:59:30.886Z,59.82
2018-05-16T02:01:58.996Z,60.48
2018-05-16T02:04:27.603Z,60.07
2018-05-16T02:06:55.730Z,60.70
2018-05-16T02:09:23.845Z,60.20
2018-05-16T02:11:51.962Z,60.49
2018-05-16T02:14:20.087Z,60.68
2018-05-16T02:16:48.225Z,60.58
2018-05-16T02:19:16.346Z,60.35
2018-05-16T02:21:44.489Z,60.84
2018-05-16T02:24:12.594Z,60.32
2018-05-16T02:26:40.724Z,60.57
2018-05-16T02:29:09.062Z,61.03
2018-05-16T02:31:37.194Z,61.18
2018-05-16T02:34:05.318Z,61.12
2018-05-16T02:36:33.743Z,61.01
2018-05-16T02:39:01.848Z,62.04
2018-05-16T02:41:29.992Z,61.54
2018-05-16T02:43:58.139Z,61.55
2018-05-16T02:46:26.261Z,61.51
2018-05-16T02:48:54.372Z,61.31
2018-05-16T02:51:22.523Z,61.73
2018-05-16T02:53:50.652Z,62.09
2018-05-16T02:56:20.916Z,62.09
2018-05-16T02:58:49.045Z,62.65
2018-05-16T03:01:17.167Z,63.11
2018-05-16T03:03:45.299Z,63.00
2018-05-16T03:06:13.432Z,63.24
2018-05-16T03:08:41.553Z,63.37
2018-05-16T03:11:09.679Z,63.50
2018-05-16T03:13:37.829Z,63.36
2018-05-16T03:16:05.963Z,64.22
2018-05-16T03:18:34.089Z,64.27
2018-05-16T03:21:02.225Z,64.52
2018-05-16T03:23:30.322Z,65.06
2018-05-16T03:25:58.449Z,65.32
2018-05-16T03:28:26.573Z,65.38
2018-05-16T03:30:54.689Z,65.81
2018-05-16T03:33:22.791Z,65.47
2018-05-16T03:35:51.124Z,65.35
2018-05-16T03:38:19.219Z,65.40
2018-05-16T03:40:47.326Z,65.42
2018-05-16T03:43:15.477Z,65.60
2018-05-16T03:45:43.589Z,65.62
2018-05-16T03:48:11.704Z,65.89
2018-05-16T03:50:39.864Z,66.14
2018-05-16T03:53:07.999Z,66.47
2018-05-16T03:55:36.105Z,66.90
2018-05-16T03:58:24.902Z,67.53
2018-05-16T04:01:04.768Z,68.05
2018-05-16T04:03:44.585Z,68.26
2018-05-16T04:06:12.714Z,68.68
2018-05-16T04:08:40.847Z,68.73
2018-05-16T04:11:08.962Z,68.70
2018-05-16T04:13:37.127Z,69.12
2018-05-16T04:16:05.191Z,69.24
2018-05-16T04:18:33.333Z,69.24
2018-05-16T04:21:01.446Z,69.05
2018-05-16T04:23:29.588Z,69.75
2018-05-16T04:25:57.729Z,70.10
2018-05-16T04:28:25.828Z,70.23
2018-05-16T04:30:53.931Z,70.06
2018-05-16T04:33:22.225Z,70.39
2018-05-16T04:35:50.361Z,70.50
2018-05-16T04:38:18.488Z,70.02
2018-05-16T04:40:46.626Z,69.97
2018-05-16T04:43:14.741Z,70.53
2018-05-16T04:45:42.859Z,70.93
2018-05-16T04:48:10.971Z,70.80
2018-05-16T04:50:40.021Z,70.31
2018-05-16T04:53:08.129Z,70.86
2018-05-16T04:55:36.513Z,71.14
2018-05-16T04:58:04.629Z,71.54
2018-05-16T05:00:32.744Z,70.86
2018-05-16T05:03:00.908Z,71.34
2018-05-16T05:05:29.023Z,70.37
2018-05-16T05:07:57.146Z,70.92
2018-05-16T05:10:25.288Z,71.47
2018-05-16T05:12:53.406Z,71.67
2018-05-16T05:15:21.525Z,71.83
2018-05-16T05:17:49.664Z,72.06
2018-05-16T05:20:17.788Z,72.29
2018-05-16T05:22:45.935Z,71.75
2018-05-16T05:25:14.134Z,71.50
2018-05-16T05:27:42.279Z,71.25
2018-05-16T05:30:10.436Z,71.50
2018-05-16T05:32:38.558Z,71.59
2018-05-16T05:35:06.685Z,71.37
2018-05-16T05:37:34.819Z,71.39
2018-05-16T05:40:02.967Z,70.93
2018-05-16T05:42:31.085Z,71.00
2018-05-16T05:44:59.188Z,70.52
2018-05-16T05:47:27.321Z,70.22
2018-05-16T05:49:55.476Z,70.40
2018-05-16T05:52:23.593Z,70.23
2018-05-16T05:54:51.983Z,70.07
2018-05-16T05:57:20.112Z,69.50
2018-05-16T05:59:48.215Z,69.28
2018-05-16T06:02:16.361Z,69.95
2018-05-16T06:04:44.499Z,69.96
2018-05-16T06:07:12.620Z,69.61
2018-05-16T06:09:40.743Z,68.82
2018-05-16T06:12:08.851Z,67.92
2018-05-16T06:14:36.970Z,67.97
2018-05-16T06:17:05.129Z,68.14
2018-05-16T06:19:33.317Z,67.55
2018-05-16T06:22:01.360Z,67.49
2018-05-16T06:24:29.503Z,67.49
2018-05-16T06:27:00.774Z,66.41
2018-05-16T06:29:28.890Z,66.34
2018-05-16T06:31:57.242Z,64.63
2018-05-16T06:34:25.391Z,64.65
2018-05-16T06:36:54.124Z,64.86
2018-05-16T06:39:22.268Z,64.16
2018-05-16T06:41:50.386Z,64.44
2018-05-16T06:44:18.515Z,64.19
2018-05-16T06:46:46.649Z,64.75
2018-05-16T06:49:14.792Z,63.61
2018-05-16T06:51:44.809Z,63.64
2018-05-16T06:54:12.967Z,64.24
2018-05-16T06:56:41.091Z,63.47
2018-05-16T06:59:09.229Z,62.58
2018-05-16T07:01:37.374Z,62.82
2018-05-16T07:04:05.617Z,62.22
2018-05-16T07:06:33.793Z,63.62
2018-05-16T07:09:01.940Z,62.95
2018-05-16T07:11:30.046Z,63.05
2018-05-16T07:13:58.167Z,62.57
2018-05-16T07:16:26.317Z,62.79
2018-05-16T07:18:54.411Z,63.00
2018-05-16T07:21:22.549Z,63.30
2018-05-16T07:23:50.722Z,63.19
2018-05-16T07:26:18.859Z,63.20
2018-05-16T07:28:46.971Z,62.74
2018-05-16T07:31:15.110Z,62.74
2018-05-16T07:33:43.241Z,61.92
2018-05-16T07:36:11.367Z,62.53
2018-05-16T07:38:39.532Z,63.27
2018-05-16T07:41:07.682Z,62.15
2018-05-16T07:43:35.809Z,62.28
2018-05-16T07:46:03.949Z,61.50
2018-05-16T07:48:32.096Z,59.77
2018-05-16T07:51:00.229Z,59.42
2018-05-16T07:53:28.360Z,60.21
2018-05-16T07:55:56.629Z,59.90
2018-05-16T07:58:24.683Z,59.19
2018-05-16T08:00:56.298Z,59.40
2018-05-16T08:03:24.604Z,59.58
2018-05-16T08:05:53.277Z,59.74
2018-05-16T08:08:21.410Z,59.59
2018-05-16T08:10:49.550Z,59.22
2018-05-16T08:13:17.672Z,58.71
2018-05-16T08:15:45.817Z,58.10
2018-05-16T08:18:13.979Z,59.24
2018-05-16T08:20:42.114Z,58.88
2018-05-16T08:23:10.256Z,59.29
2018-05-16T08:25:38.408Z,59.79
2018-05-16T08:28:06.569Z,59.28
2018-05-16T08:30:34.736Z,59.60
2018-05-16T08:33:02.881Z,58.81
2018-05-16T08:35:31.006Z,58.61
2018-05-16T08:37:59.173Z,56.88
2018-05-16T08:40:27.292Z,57.58
2018-05-16T08:42:55.463Z,57.85
2018-05-16T08:45:23.554Z,58.08
2018-05-16T08:47:51.681Z,58.33
2018-05-16T08:50:19.939Z,58.07
2018-05-16T08:52:48.377Z,57.45
2018-05-16T08:55:16.513Z,57.53
2018-05-16T08:57:44.641Z,57.43
2018-05-16T09:00:12.765Z,57.14
2018-05-16T09:02:40.889Z,56.43
2018-05-16T09:05:09.009Z,56.30
2018-05-16T09:07:37.145Z,55.21
2018-05-16T09:10:05.258Z,55.62
2018-05-16T09:12:33.362Z,56.38
2018-05-16T09:15:01.497Z,57.98
2018-05-16T09:17:29.647Z,57.15
2018-05-16T09:19:57.773Z,56.06
2018-05-16T09:22:25.928Z,55.36
2018-05-16T09:24:54.034Z,55.07
2018-05-16T09:27:22.241Z,53.88
2018-05-16T09:29:50.456Z,54.14
2018-05-16T09:32:18.634Z,53.89
2018-05-16T09:34:46.762Z,53.39
2018-05-16T09:37:14.892Z,53.10
2018-05-16T09:39:43.009Z,52.38
2018-05-16T09:42:11.129Z,52.94
2018-05-16T09:44:39.262Z,53.24
2018-05-16T09:47:07.391Z,53.56
2018-05-16T09:49:35.530Z,53.00
2018-05-16T09:52:03.672Z,53.06
2018-05-16T09:54:31.875Z,53.43
2018-05-16T09:57:00.045Z,52.93
2018-05-16T09:59:28.185Z,53.03
2018-05-16T10:01:56.299Z,53.10
2018-05-16T10:04:24.407Z,52.91
2018-05-16T10:06:52.568Z,52.72
2018-05-16T10:09:20.996Z,52.83
2018-05-16T10:11:49.154Z,53.69
2018-05-16T10:14:17.348Z,53.29
2018-05-16T10:16:45.455Z,54.21
2018-05-16T10:19:13.823Z,52.74
2018-05-16T10:21:42.005Z,52.73
2018-05-16T10:24:10.133Z,53.30
2018-05-16T10:26:38.273Z,53.31
2018-05-16T10:29:06.577Z,53.11
2018-05-16T10:31:34.717Z,52.88
2018-05-16T10:34:02.810Z,52.89
2018-05-16T10:36:30.976Z,53.69
2018-05-16T10:38:59.139Z,53.57
2018-05-16T10:41:27.245Z,52.74
2018-05-16T10:43:55.365Z,53.22
2018-05-16T10:46:23.480Z,53.36
2018-05-16T10:48:51.601Z,53.18
2018-05-16T10:51:19.737Z,53.63
2018-05-16T10:53:48.150Z,54.47
2018-05-16T10:56:15.973Z,54.47
2018-05-16T10:58:44.127Z,54.17
2018-05-16T11:01:12.245Z,54.77
2018-05-16T11:03:40.377Z,55.00
2018-05-16T11:06:08.521Z,55.05
2018-05-16T11:08:36.655Z,54.68
2018-05-16T11:11:04.800Z,54.76
2018-05-16T11:13:32.935Z,55.03
2018-05-16T11:16:01.053Z,55.58
2018-05-16T11:18:29.177Z,54.89
2018-05-16T11:20:57.313Z,54.74
2018-05-16T11:23:25.461Z,55.50
2018-05-16T11:25:53.612Z,54.95
2018-05-16T11:28:21.789Z,54.79
2018-05-16T11:30:49.959Z,54.86
2018-05-16T11:33:18.097Z,54.41
2018-05-16T11:35:46.213Z,54.40
2018-05-16T11:38:14.341Z,54.53
2018-05-16T11:40:42.483Z,53.68
2018-05-16T11:43:10.601Z,53.74
2018-05-16T11:45:38.730Z,53.81
2018-05-16T11:48:06.864Z,54.08
2018-05-16T11:50:35.015Z,53.42
2018-05-16T11:53:03.137Z,53.02
2018-05-16T11:55:31.266Z,51.92
2018-05-16T11:57:59.379Z,50.32
2018-05-16T12:00:27.505Z,51.12
2018-05-16T12:02:55.693Z,50.18
2018-05-16T12:05:23.751Z,50.47
2018-05-16T12:07:51.876Z,50.98
2018-05-16T12:10:19.979Z,50.41
2018-05-16T12:12:48.116Z,50.66
2018-05-16T12:15:16.232Z,50.52
2018-05-16T12:17:44.354Z,51.39
2018-05-16T12:20:12.505Z,52.23
2018-05-16T12:22:40.611Z,52.51
2018-05-16T12:25:08.715Z,52.42
2018-05-16T12:27:36.894Z,51.31
2018-05-16T12:30:05.000Z,50.65
2018-05-16T12:32:33.128Z,51.54
2018-05-16T12:35:01.240Z,50.96
2018-05-16T12:37:29.373Z,52.44
2018-05-16T12:39:57.476Z,52.92
2018-05-16T12:42:25.598Z,52.95
2018-05-16T12:44:53.704Z,52.71
2018-05-16T12:47:21.861Z,52.59
2018-05-16T12:49:49.967Z,53.02
2018-05-16T12:52:18.075Z,53.73
2018-05-16T12:54:46.224Z,53.70
2018-05-16T12:57:14.389Z,52.53
2018-05-16T12:59:42.509Z,52.27
2018-05-16T13:02:10.626Z,52.34
2018-05-16T13:04:38.758Z,51.22
2018-05-16T13:07:06.958Z,51.05
2018-05-16T13:09:34.980Z,51.54
2018-05-16T13:12:03.121Z,52.06
2018-05-16T13:14:31.219Z,53.06
2018-05-16T13:16:59.341Z,53.33
2018-05-16T13:19:27.496Z,53.86
2018-05-16T13:21:55.628Z,53.71
2018-05-16T13:24:23.756Z,54.03
2018-05-16T13:26:51.979Z,54.20
2018-05-16T13:29:20.313Z,54.63
2018-05-16T13:31:48.425Z,54.36
2018-05-16T13:34:16.561Z,53.54
2018-05-16T13:36:44.767Z,54.45
2018-05-16T13:39:12.937Z,55.54
2018-05-16T13:41:41.069Z,55.06
2018-05-16T13:44:09.215Z,55.50
2018-05-16T13:46:37.328Z,55.13
2018-05-16T13:49:05.450Z,56.63
2018-05-16T13:51:33.581Z,55.95
2018-05-16T13:54:01.683Z,56.20
2018-05-16T13:56:29.821Z,56.83
2018-05-16T13:58:58.556Z,56.30
2018-05-16T14:01:26.669Z,55.68
2018-05-16T14:03:54.856Z,55.80
2018-05-16T14:06:22.995Z,55.21
2018-05-16T14:08:51.119Z,55.96
2018-05-16T14:11:19.317Z,56.64
2018-05-16T14:13:47.459Z,57.50
2018-05-16T14:16:15.578Z,57.52
2018-05-16T14:18:43.685Z,57.36
2018-05-16T14:21:11.817Z,58.12
2018-05-16T14:23:39.937Z,59.82
2018-05-16T14:26:08.078Z,58.68
2018-05-16T14:28:36.212Z,58.20
2018-05-16T14:31:04.329Z,58.46
2018-05-16T14:33:32.549Z,59.93
2018-05-16T14:36:00.648Z,62.67
2018-05-16T14:38:28.814Z,67.72
2018-05-16T14:40:57.026Z,74.32
2018-05-16T14:43:25.213Z,80.40
2018-05-16T14:45:53.327Z,82.70
2018-05-16T14:48:21.492Z,85.33
2018-05-16T14:50:49.733Z,87.24
2018-05-16T14:53:17.868Z,87.74
2018-05-16T14:55:46.195Z,85.95
2018-05-16T14:58:14.317Z,87.27
2018-05-16T15:00:42.429Z,87.86
2018-05-16T15:03:10.713Z,89.26
2018-05-16T15:05:38.839Z,89.16
2018-05-16T15:08:07.577Z,88.66
2018-05-16T15:10:35.924Z,88.45
2018-05-16T15:13:04.096Z,88.73
2018-05-16T15:15:32.227Z,89.23
2018-05-16T15:18:00.376Z,89.79
2018-05-16T15:20:28.521Z,89.98
2018-05-16T15:22:56.659Z,89.57
2018-05-16T15:25:24.786Z,89.55
2018-05-16T15:27:56.648Z,90.14
2018-05-16T15:30:24.791Z,90.06
2018-05-16T15:32:52.940Z,89.85
2018-05-16T15:35:21.083Z,89.76
2018-05-16T15:37:49.303Z,89.90
2018-05-16T15:40:17.458Z,91.11
2018-05-16T15:42:45.589Z,91.49
2018-05-16T15:45:13.725Z,90.79
2018-05-16T15:47:41.900Z,90.75
2018-05-16T15:50:10.042Z,90.40
2018-05-16T15:52:38.200Z,90.16
2018-05-16T15:55:06.416Z,90.05
2018-05-16T15:57:34.545Z,89.46
2018-05-16T16:00:02.860Z,89.41
2018-05-16T16:02:31.000Z,87.39
2018-05-16T16:05:02.258Z,86.20
2018-05-16T16:07:30.372Z,88.38
2018-05-16T16:09:58.526Z,87.28
2018-05-16T16:12:26.661Z,87.78
2018-05-16T16:14:54.850Z,88.56
2018-05-16T16:17:22.991Z,87.59
2018-05-16T16:19:51.124Z,85.82
2018-05-16T16:22:19.249Z,86.96
2018-05-16T16:24:47.375Z,87.54
2018-05-16T16:27:15.496Z,87.93
2018-05-16T16:29:43.621Z,89.43
2018-05-16T16:32:11.765Z,90.43
2018-05-16T16:34:39.900Z,89.65
2018-05-16T16:37:08.044Z,89.79
2018-05-16T16:39:36.204Z,90.29
2018-05-16T16:42:04.350Z,90.49
2018-05-16T16:44:32.472Z,90.68
2018-05-16T16:47:00.772Z,86.60
2018-05-16T16:49:31.828Z,86.03
2018-05-16T16:51:59.966Z,85.21
2018-05-16T16:54:28.152Z,80.06
2018-05-16T16:56:56.352Z,77.81
2018-05-16T16:59:24.509Z,79.43
2018-05-16T17:01:52.666Z,82.49
2018-05-16T17:04:20.810Z,77.00
2018-05-16T17:06:48.957Z,76.68
2018-05-16T17:09:17.150Z,76.48
2018-05-16T17:11:45.267Z,75.14
2018-05-16T17:14:13.406Z,73.80
2018-05-16T17:16:41.568Z,74.01
2018-05-16T17:19:09.784Z,74.29
2018-05-16T17:21:37.935Z,75.17
2018-05-16T17:24:06.089Z,74.38
2018-05-16T17:26:34.206Z,74.48
2018-05-16T17:29:02.322Z,74.53
2018-05-16T17:31:30.456Z,73.52
2018-05-16T17:33:58.590Z,75.03
2018-05-16T17:36:26.703Z,73.41
2018-05-16T17:38:54.858Z,72.45
2018-05-16T17:41:22.967Z,71.33
2018-05-16T17:43:51.111Z,71.18
2018-05-16T17:46:19.267Z,71.61
2018-05-16T17:48:47.380Z,73.11
2018-05-16T17:51:19.272Z,71.58
2018-05-16T17:53:47.467Z,70.31
2018-05-16T17:56:15.548Z,70.47
2018-05-16T17:58:43.664Z,71.22
2018-05-16T18:01:11.842Z,69.89
2018-05-16T18:03:39.982Z,69.15
2018-05-16T18:06:08.122Z,69.05
2018-05-16T18:08:36.256Z,68.73
2018-05-16T18:11:07.916Z,69.89
2018-05-16T18:16:49.494Z,68.37
2018-05-16T18:19:18.197Z,68.33
2018-05-16T18:21:46.327Z,68.57
2018-05-16T18:24:14.448Z,67.12
2018-05-16T18:26:42.602Z,67.45
2018-05-16T18:29:10.725Z,66.22
2018-05-16T18:31:38.848Z,66.66
2018-05-16T18:34:07.002Z,65.89
2018-05-16T18:36:35.129Z,66.49
2018-05-16T18:39:03.235Z,65.59
2018-05-16T18:41:31.385Z,66.83
2018-05-16T18:43:59.528Z,67.08
2018-05-16T18:46:27.742Z,66.20
2018-05-16T18:48:55.921Z,67.28
2018-05-16T18:51:24.142Z,66.19
2018-05-16T18:53:52.258Z,66.75
2018-05-16T18:56:20.401Z,67.08
2018-05-16T18:58:48.525Z,66.19
2018-05-16T19:01:16.644Z,65.60
2018-05-16T19:03:44.913Z,67.22
2018-05-16T19:06:13.019Z,66.48
2018-05-16T19:08:41.217Z,67.30
2018-05-16T19:11:09.297Z,67.47
2018-05-16T19:13:37.449Z,67.63
2018-05-16T19:16:05.601Z,67.06
2018-05-16T19:18:33.730Z,65.87
2018-05-16T19:21:01.966Z,65.99
2018-05-16T19:23:30.142Z,65.18
2018-05-16T19:25:58.301Z,65.49
2018-05-16T19:28:26.435Z,65.80
2018-05-16T19:30:54.714Z,64.92
2018-05-16T19:33:22.866Z,65.17
2018-05-16T19:35:51.007Z,64.60
2018-05-16T19:38:19.151Z,64.76
2018-05-16T19:40:47.522Z,65.96
2018-05-16T19:43:15.681Z,64.81
2018-05-16T19:45:43.865Z,65.43
2018-05-16T19:48:11.996Z,65.53
2018-05-16T19:50:40.117Z,65.53
2018-05-16T19:53:08.314Z,65.64
2018-05-16T19:55:36.443Z,65.78
2018-05-16T19:58:04.561Z,65.45
2018-05-16T20:00:32.670Z,65.68
2018-05-16T20:03:00.794Z,65.62
2018-05-16T20:05:28.940Z,65.65
2018-05-16T20:07:57.043Z,64.25
2018-05-16T20:10:28.380Z,64.89
2018-05-16T20:12:56.709Z,64.14
2018-05-16T20:15:24.853Z,64.24
2018-05-16T20:17:52.993Z,63.95
2018-05-16T20:20:21.200Z,64.43
2018-05-16T20:22:49.333Z,64.03
2018-05-16T20:25:17.460Z,64.79
2018-05-16T20:27:45.585Z,65.61
2018-05-16T20:30:13.727Z,65.78
2018-05-16T20:32:41.866Z,66.26
2018-05-16T20:35:10.105Z,65.92
2018-05-16T20:37:38.137Z,66.17
2018-05-16T20:40:06.277Z,67.10
2018-05-16T20:42:34.452Z,66.89
2018-05-16T20:45:02.600Z,67.33
2018-05-16T20:47:30.828Z,66.57
2018-05-16T20:49:58.937Z,67.83
2018-05-16T20:52:27.076Z,67.04
2018-05-16T20:54:55.217Z,67.56
2018-05-16T20:57:23.462Z,68.22
2018-05-16T20:59:51.585Z,68.75
2018-05-16T21:02:19.866Z,68.34
2018-05-16T21:04:48.087Z,68.50
2018-05-16T21:07:16.201Z,68.13
2018-05-16T21:09:44.324Z,67.63
2018-05-16T21:12:12.449Z,67.97
2018-05-16T21:14:40.596Z,67.94
2018-05-16T21:17:08.995Z,67.91
2018-05-16T21:19:37.132Z,68.88
2018-05-16T21:22:05.236Z,69.20
2018-05-16T21:24:33.373Z,69.36
2018-05-16T21:27:01.503Z,70.28
2018-05-16T21:29:29.668Z,70.48
2018-05-16T21:31:57.790Z,69.69
2018-05-16T21:34:25.942Z,69.81
2018-05-16T21:36:54.061Z,70.87
2018-05-16T21:39:22.179Z,71.40
2018-05-16T21:41:50.290Z,70.75
2018-05-16T21:44:18.390Z,70.36
2018-05-16T21:46:46.752Z,70.33
2018-05-16T21:49:14.882Z,70.34
2018-05-16T21:51:43.075Z,70.21
2018-05-16T21:54:11.196Z,70.11
2018-05-16T21:56:39.362Z,71.13
2018-05-16T21:59:07.423Z,71.25
2018-05-16T22:01:35.586Z,71.05
2018-05-16T22:04:03.690Z,71.27
2018-05-16T22:06:31.807Z,71.71
2018-05-16T22:08:59.931Z,71.56
2018-05-16T22:11:28.075Z,71.58
2018-05-16T22:13:56.195Z,72.32
2018-05-16T22:16:24.337Z,72.24
2018-05-16T22:18:52.443Z,72.22
2018-05-16T22:21:20.587Z,72.05
2018-05-16T22:23:48.736Z,72.00
2018-05-16T22:26:16.858Z,72.28
2018-05-16T22:28:44.967Z,72.25
2018-05-16T22:31:18.696Z,72.16
2018-05-16T22:33:52.488Z,72.37
2018-05-16T22:36:26.218Z,71.75
2018-05-16T22:38:59.895Z,70.51
2018-05-16T22:41:33.629Z,71.23
2018-05-16T22:44:03.537Z,70.54
2018-05-16T22:46:31.651Z,70.47
2018-05-16T22:48:59.793Z,69.88
2018-05-16T22:51:27.917Z,70.05
2018-05-16T22:53:56.060Z,69.75
2018-05-16T22:56:24.341Z,69.56
2018-05-16T22:58:52.468Z,70.85
2018-05-16T23:01:20.580Z,70.90
2018-05-16T23:03:48.721Z,71.00
2018-05-16T23:06:16.863Z,70.70
2018-05-16T23:08:44.986Z,71.24
2018-05-16T23:11:13.297Z,70.46
2018-05-16T23:13:41.439Z,70.47
2018-05-16T23:16:09.655Z,71.93
2018-05-16T23:18:37.702Z,71.35
2018-05-16T23:21:05.837Z,71.87
2018-05-16T23:23:33.966Z,72.28
2018-05-16T23:26:02.105Z,72.16
2018-05-16T23:28:30.226Z,71.51
2018-05-16T23:30:58.356Z,70.31
2018-05-16T23:33:26.488Z,70.49
2018-05-16T23:35:54.613Z,70.40
2018-05-16T23:38:22.720Z,70.61
2018-05-16T23:40:50.861Z,69.66
2018-05-16T23:43:18.981Z,69.65
2018-05-16T23:45:47.090Z,70.22
2018-05-16T23:48:15.430Z,68.79
2018-05-16T23:50:43.620Z,69.04
2018-05-16T23:53:11.792Z,69.09
2018-05-16T23:55:39.914Z,69.17
2018-05-16T23:58:08.028Z,69.47
